Time;durP1;ratioP1;P1;durP2;ratioP2;P2;SDS_P1;SDS_P2;PMS_P1;PMS_P2;Temp;Humidity;BMP_temperature;BMP_pressure;BME280_temperature;BME280_humidity;BME280_pressure;Samples;Min_cycle;Max_cycle;Signal;HPM_P1;HPM_P2
2022/05/23 00:00:00;;;;;;;6.17;3.40;;;16.20;62.70;;;;;;5091562;28;20458;-80
2022/05/23 00:02:27;;;;;;;6.87;2.73;;;16.20;60.90;;;;;;5093207;28;20461;-81
2022/05/23 00:04:54;;;;;;;6.00;2.93;;;16.20;60.30;;;;;;5092711;28;20463;-83
2022/05/23 00:07:26;;;;;;;5.80;2.70;;;16.20;58.30;;;;;;5092794;28;20459;-82
2022/05/23 00:09:53;;;;;;;5.80;2.50;;;16.30;57.60;;;;;;5090946;28;20452;-82
2022/05/23 00:12:20;;;;;;;7.87;3.60;;;16.30;58.40;;;;;;5092366;28;20435;-82
2022/05/23 00:14:47;;;;;;;5.30;2.60;;;16.20;59.50;;;;;;5092539;28;20492;-82
2022/05/23 00:17:14;;;;;;;7.70;3.43;;;16.30;60.10;;;;;;5092090;28;20458;-82
2022/05/23 00:19:41;;;;;;;10.50;3.80;;;16.30;61.10;;;;;;5091389;28;20468;-83
2022/05/23 00:22:08;;;;;;;6.40;3.20;;;16.20;61.60;;;;;;5091993;28;20457;-81
2022/05/23 00:24:36;;;;;;;6.50;3.20;;;16.20;62.40;;;;;;5091124;28;20460;-82
2022/05/23 00:27:04;;;;;;;6.40;4.30;;;16.10;65.50;;;;;;5092518;28;20449;-81
2022/05/23 00:29:31;;;;;;;8.77;3.97;;;16.00;66.40;;;;;;5090019;28;20648;-83
2022/05/23 00:37:27;;;;;;;5.93;3.40;;;16.00;63.80;;;;;;5092090;28;20433;-83
2022/05/23 00:39:56;;;;;;;8.97;3.37;;;16.00;63.50;;;;;;5090817;28;20447;-82
2022/05/23 00:45:15;;;;;;;6.67;3.27;;;16.10;61.80;;;;;;5092012;28;20465;-83
2022/05/23 00:47:42;;;;;;;9.53;3.20;;;16.20;62.00;;;;;;5092104;28;20534;-82
2022/05/23 00:50:10;;;;;;;6.27;2.83;;;16.20;62.10;;;;;;5090612;28;20530;-82
2022/05/23 00:52:42;;;;;;;8.33;3.67;;;16.20;62.50;;;;;;5092482;28;20447;-80
2022/05/23 00:55:16;;;;;;;8.67;3.33;;;16.20;61.80;;;;;;5090541;28;20488;-82
2022/05/23 00:57:46;;;;;;;7.77;3.03;;;16.20;61.30;;;;;;5091949;28;20447;-83
2022/05/23 01:00:14;;;;;;;6.93;3.33;;;16.20;59.80;;;;;;5090424;28;20460;-83
2022/05/23 01:02:42;;;;;;;8.20;2.60;;;16.20;59.80;;;;;;5091918;28;20453;-82
2022/05/23 01:05:10;;;;;;;6.87;3.03;;;16.20;58.30;;;;;;5091865;28;20472;-83
2022/05/23 01:07:37;;;;;;;8.27;3.27;;;16.20;57.60;;;;;;5091422;28;20465;-82
2022/05/23 01:10:05;;;;;;;6.57;2.70;;;16.30;55.20;;;;;;5089571;28;20449;-81
2022/05/23 01:12:34;;;;;;;6.97;2.80;;;16.30;53.20;;;;;;5091867;28;20456;-81
2022/05/23 01:15:03;;;;;;;6.13;2.50;;;16.40;52.80;;;;;;5091267;28;20479;-82
2022/05/23 01:17:30;;;;;;;6.03;2.90;;;16.40;51.70;;;;;;5092054;28;20453;-82
2022/05/23 01:19:57;;;;;;;7.07;2.70;;;16.50;50.00;;;;;;5090213;28;20452;-82
2022/05/23 01:22:31;;;;;;;5.67;2.80;;;16.40;49.80;;;;;;5090989;28;20459;-81
2022/05/23 01:25:06;;;;;;;9.50;3.00;;;16.40;49.80;;;;;;5091350;28;20436;-82
2022/05/23 01:27:37;;;;;;;10.87;2.67;;;16.50;50.00;;;;;;5091412;28;20455;-83
2022/05/23 01:30:05;;;;;;;9.00;2.87;;;16.50;49.30;;;;;;5089986;28;20494;-82
2022/05/23 01:32:31;;;;;;;5.83;3.27;;;16.60;48.80;;;;;;5091474;28;20962;-82
2022/05/23 01:34:58;;;;;;;4.70;2.60;;;16.50;49.90;;;;;;5090910;28;20473;-82
2022/05/23 01:37:26;;;;;;;5.10;2.50;;;16.50;50.00;;;;;;5091352;28;20444;-83
2022/05/23 01:39:53;;;;;;;7.30;3.13;;;16.40;49.80;;;;;;5089868;28;20450;-82
2022/05/23 01:42:20;;;;;;;8.53;2.93;;;16.50;50.50;;;;;;5091131;28;20521;-82
2022/05/23 01:44:48;;;;;;;7.57;2.77;;;16.40;51.20;;;;;;5090645;28;20466;-82
2022/05/23 01:47:17;;;;;;;7.30;3.00;;;16.30;49.80;;;;;;5081797;28;20973;-79
2022/05/23 01:49:44;;;;;;;6.07;3.60;;;16.20;49.70;;;;;;5081013;28;20449;-79
2022/05/23 01:52:11;;;;;;;8.40;3.07;;;16.30;51.40;;;;;;5082470;28;20459;-79
2022/05/23 01:54:39;;;;;;;6.60;3.20;;;16.20;54.60;;;;;;5088297;22;20998;-78
2022/05/23 01:57:07;;;;;;;4.90;3.20;;;16.00;56.00;;;;;;5052165;28;20452;-79
2022/05/23 02:02:20;;;;;;;4.60;2.30;;;15.90;54.30;;;;;;5031312;28;20496;-79
2022/05/23 02:04:47;;;;;;;6.87;2.50;;;15.90;54.40;;;;;;5031980;28;20539;-79
2022/05/23 02:07:15;;;;;;;6.80;2.93;;;16.00;55.00;;;;;;5031457;28;20459;-79
2022/05/23 02:09:42;;;;;;;8.10;3.10;;;15.90;53.30;;;;;;5031230;28;20537;-79
2022/05/23 02:12:10;;;;;;;6.60;3.07;;;16.00;52.90;;;;;;5032128;28;20449;-79
2022/05/23 02:14:38;;;;;;;7.97;3.30;;;15.90;52.90;;;;;;5031568;28;20492;-79
2022/05/23 02:17:08;;;;;;;5.37;2.60;;;15.90;54.00;;;;;;5032360;28;20461;-79
2022/05/23 02:19:37;;;;;;;4.80;2.60;;;15.90;55.40;;;;;;5031189;28;20450;-79
2022/05/23 02:22:05;;;;;;;8.83;3.03;;;15.90;56.60;;;;;;5032311;28;20503;-79
2022/05/23 02:24:32;;;;;;;7.17;3.20;;;15.90;57.50;;;;;;5031564;28;20470;-79
2022/05/23 02:26:59;;;;;;;6.13;3.50;;;15.90;58.00;;;;;;5043340;28;20453;-79
2022/05/23 02:29:26;;;;;;;6.33;2.83;;;15.80;59.00;;;;;;5044479;28;20463;-80
2022/05/23 02:31:53;;;;;;;6.60;3.47;;;15.80;59.40;;;;;;5033598;28;20452;-79
2022/05/23 02:34:20;;;;;;;7.07;3.77;;;15.80;60.60;;;;;;5044046;28;20478;-79
2022/05/23 02:36:48;;;;;;;7.30;3.63;;;15.70;60.20;;;;;;5043182;28;20461;-80
2022/05/23 02:39:15;;;;;;;11.27;3.90;;;15.70;59.70;;;;;;5045521;28;20970;-79
2022/05/23 02:41:43;;;;;;;7.27;2.83;;;15.70;58.80;;;;;;5046912;28;20457;-79
2022/05/23 02:44:10;;;;;;;5.83;3.10;;;15.70;59.40;;;;;;5044948;28;20501;-79
2022/05/23 02:46:38;;;;;;;6.60;3.67;;;15.60;59.70;;;;;;5046119;28;20453;-80
2022/05/23 02:49:06;;;;;;;9.70;4.90;;;15.60;59.40;;;;;;5035421;28;20479;-83
2022/05/23 02:51:33;;;;;;;7.33;3.53;;;15.70;59.10;;;;;;5031760;28;20459;-79
2022/05/23 02:54:01;;;;;;;8.73;3.10;;;15.70;58.50;;;;;;5032022;28;20477;-79
2022/05/23 02:56:28;;;;;;;7.40;2.70;;;15.60;56.10;;;;;;5035433;28;20464;-81
2022/05/23 02:58:54;;;;;;;6.57;2.93;;;15.70;55.10;;;;;;5033660;28;20461;-81
2022/05/23 03:01:21;;;;;;;6.77;3.13;;;15.80;55.00;;;;;;5035179;28;20456;-80
2022/05/23 03:03:47;;;;;;;8.00;3.03;;;15.80;55.80;;;;;;5034209;28;20504;-80
2022/05/23 03:06:14;;;;;;;5.90;2.83;;;15.70;55.70;;;;;;5034229;28;20453;-81
2022/05/23 03:08:41;;;;;;;7.53;2.73;;;15.80;52.90;;;;;;5034620;28;20224;-81
2022/05/23 03:11:09;;;;;;;6.67;2.80;;;15.80;52.10;;;;;;5035927;28;20462;-82
2022/05/23 03:13:37;;;;;;;5.77;3.37;;;15.80;51.20;;;;;;5026513;28;20450;-83
2022/05/23 03:16:07;;;;;;;6.83;3.13;;;15.80;51.00;;;;;;5035861;28;20483;-82
2022/05/23 03:18:34;;;;;;;6.77;3.17;;;15.90;51.20;;;;;;5037627;28;20466;-82
2022/05/23 03:21:04;;;;;;;6.90;3.10;;;15.90;51.00;;;;;;5043145;28;20450;-81
2022/05/23 03:29:03;;;;;;;7.53;3.00;;;15.80;50.20;;;;;;5035305;28;20508;-79
2022/05/23 03:31:30;;;;;;;6.60;3.27;;;15.90;51.10;;;;;;5033035;28;20460;-80
2022/05/23 03:33:57;;;;;;;6.77;3.77;;;15.80;52.10;;;;;;5033145;28;20480;-80
2022/05/23 03:36:24;;;;;;;9.97;4.17;;;15.90;53.00;;;;;;5034714;28;20454;-80
2022/05/23 03:38:51;;;;;;;6.43;3.73;;;15.90;54.40;;;;;;5033384;28;20463;-82
2022/05/23 03:41:19;;;;;;;10.00;4.00;;;15.90;56.40;;;;;;5034509;28;20465;-82
2022/05/23 03:43:46;;;;;;;9.00;3.93;;;15.80;55.90;;;;;;5036253;28;20458;-82
2022/05/23 03:46:14;;;;;;;7.70;3.87;;;15.70;56.80;;;;;;5035263;28;20447;-81
2022/05/23 03:48:41;;;;;;;8.67;3.43;;;15.70;57.40;;;;;;5034336;28;20454;-81
2022/05/23 03:51:09;;;;;;;9.53;4.27;;;15.60;56.80;;;;;;5036531;28;20912;-81
2022/05/23 03:53:36;;;;;;;7.00;3.93;;;15.70;55.70;;;;;;5036270;28;21057;-81
2022/05/23 03:56:04;;;;;;;7.73;3.87;;;15.80;55.00;;;;;;5036227;28;20477;-82
2022/05/23 03:58:32;;;;;;;9.50;4.17;;;15.70;54.90;;;;;;5035592;28;20809;-81
2022/05/23 04:01:06;;;;;;;5.70;3.30;;;15.80;54.80;;;;;;5034857;28;20454;-82
2022/05/23 04:03:32;;;;;;;7.07;3.80;;;15.70;53.40;;;;;;5036669;28;20453;-83
2022/05/23 04:06:00;;;;;;;8.17;3.50;;;15.90;52.90;;;;;;5036018;28;20450;-82
2022/05/23 04:08:27;;;;;;;8.00;3.73;;;15.80;52.00;;;;;;5033685;28;20526;-82
2022/05/23 04:10:54;;;;;;;8.90;3.57;;;15.90;51.50;;;;;;5036255;28;20453;-82
2022/05/23 04:13:21;;;;;;;9.80;4.27;;;16.00;51.10;;;;;;5036749;28;20453;-83
2022/05/23 04:15:49;;;;;;;20.30;8.10;;;16.00;50.50;;;;;;5037168;28;20478;-84
2022/05/23 04:18:16;;;;;;;11.13;4.07;;;16.20;50.60;;;;;;5037724;28;20449;-83
2022/05/23 04:20:44;;;;;;;6.63;3.50;;;16.10;49.80;;;;;;5029473;28;20514;-80
2022/05/23 04:23:11;;;;;;;7.83;3.40;;;16.30;49.80;;;;;;5032959;28;20454;-80
2022/05/23 04:25:40;;;;;;;5.90;3.10;;;16.30;49.40;;;;;;5037542;28;20478;-79
2022/05/23 04:28:07;;;;;;;8.43;2.90;;;16.40;48.40;;;;;;5037223;28;20458;-80
2022/05/23 04:30:33;;;;;;;6.50;3.13;;;16.50;48.60;;;;;;5034680;28;20485;-80
2022/05/23 04:35:46;;;;;;;7.00;3.30;;;16.60;47.80;;;;;;5036211;28;20476;-82
2022/05/23 04:38:13;;;;;;;6.30;3.70;;;16.80;47.80;;;;;;5035109;28;20719;-81
2022/05/23 04:41:07;;;;;;;;;;;;;;;;;;;;;
2022/05/23 05:00:29;;;;;;;6.00;3.20;;;16.70;50.10;;;;;;4970271;28;21020;-83
2022/05/23 05:03:23;;;;;;;5.33;3.20;;;16.80;50.20;;;;;;4941250;29;20902;-84
2022/05/23 05:09:22;;;;;;;9.60;3.63;;;17.00;48.00;;;;;;5046187;22;20516;-80
2022/05/23 05:11:48;;;;;;;5.90;3.13;;;17.10;47.80;;;;;;5063125;28;20456;-80
2022/05/23 05:14:15;;;;;;;7.83;4.07;;;17.20;46.90;;;;;;5060176;28;20447;-83
2022/05/23 05:16:42;;;;;;;8.57;3.57;;;17.30;47.90;;;;;;5060846;28;20460;-81
2022/05/23 05:19:10;;;;;;;6.20;3.17;;;17.30;47.60;;;;;;5058569;28;20501;-82
2022/05/23 05:21:37;;;;;;;7.13;2.90;;;17.40;45.90;;;;;;5058977;28;20500;-81
2022/05/23 05:24:05;;;;;;;5.97;2.73;;;17.50;45.90;;;;;;5057201;28;20455;-80
2022/05/23 05:26:32;;;;;;;7.80;2.70;;;17.50;45.00;;;;;;5058623;28;20450;-82
2022/05/23 05:28:59;;;;;;;8.47;3.47;;;17.60;44.00;;;;;;5057374;28;20463;-82
2022/05/23 05:31:31;;;;;;;8.57;3.47;;;17.80;44.40;;;;;;5056905;28;20462;-82
2022/05/23 05:34:02;;;;;;;4.57;2.13;;;17.90;43.90;;;;;;5055951;28;20447;-78
2022/05/23 05:36:37;;;;;;;8.37;3.10;;;18.00;42.50;;;;;;5053822;28;20472;-79
2022/05/23 05:39:06;;;;;;;11.23;3.10;;;18.10;42.60;;;;;;5055654;28;20475;-79
2022/05/23 05:41:37;;;;;;;5.43;2.70;;;18.10;42.60;;;;;;5055067;28;20456;-79
2022/05/23 05:44:07;;;;;;;6.67;3.03;;;18.20;41.40;;;;;;5037075;28;20449;-79
2022/05/23 05:46:37;;;;;;;6.30;3.30;;;18.30;40.50;;;;;;5054293;28;20443;-79
2022/05/23 05:49:08;;;;;;;6.20;2.90;;;18.30;42.20;;;;;;5064688;28;20862;-80
2022/05/23 05:51:39;;;;;;;8.70;2.93;;;18.20;40.20;;;;;;5063957;28;20451;-79
2022/05/23 05:54:09;;;;;;;6.63;3.17;;;18.30;39.80;;;;;;5057304;28;20452;-78
2022/05/23 05:56:36;;;;;;;5.73;3.20;;;18.30;39.70;;;;;;5039170;28;20476;-79
2022/05/23 05:59:03;;;;;;;6.60;3.10;;;18.30;40.10;;;;;;5049335;28;20472;-78
2022/05/23 06:01:30;;;;;;;7.43;3.70;;;18.30;40.90;;;;;;5064907;28;20460;-79
2022/05/23 06:03:56;;;;;;;10.50;3.17;;;18.40;40.00;;;;;;5065196;28;20835;-79
2022/05/23 06:11:53;;;;;;;8.30;3.63;;;18.80;37.60;;;;;;5053920;28;20447;-78
2022/05/23 06:14:19;;;;;;;7.27;2.37;;;18.90;37.70;;;;;;5053677;28;20529;-78
2022/05/23 06:16:46;;;;;;;5.30;2.33;;;19.10;37.70;;;;;;5051521;28;20489;-79
2022/05/23 06:19:14;;;;;;;7.90;2.50;;;19.30;34.70;;;;;;5051552;28;20473;-77
2022/05/23 06:21:42;;;;;;;6.07;2.57;;;19.40;34.70;;;;;;5052877;28;20833;-79
2022/05/23 06:24:10;;;;;;;7.53;3.00;;;19.70;33.60;;;;;;5052511;28;20455;-78
2022/05/23 06:26:37;;;;;;;5.47;2.30;;;19.90;32.90;;;;;;5052991;28;20450;-79
2022/05/23 06:29:03;;;;;;;6.70;4.10;;;20.00;30.80;;;;;;5053851;28;20470;-79
2022/05/23 06:31:30;;;;;;;6.20;2.50;;;20.00;32.30;;;;;;5052972;28;20458;-79
2022/05/23 06:33:57;;;;;;;6.80;2.60;;;20.00;31.10;;;;;;5053477;28;20449;-79
2022/05/23 06:36:24;;;;;;;8.73;2.87;;;20.10;30.30;;;;;;5052358;28;20486;-79
2022/05/23 06:38:51;;;;;;;7.27;3.00;;;20.30;30.00;;;;;;5054463;28;20468;-83
2022/05/23 06:41:19;;;;;;;5.13;2.60;;;20.30;29.90;;;;;;5058878;28;20471;-80
2022/05/23 06:43:46;;;;;;;6.10;3.10;;;20.20;29.50;;;;;;5059998;28;20451;-80
2022/05/23 06:46:14;;;;;;;4.93;2.40;;;20.30;29.70;;;;;;5060261;28;20451;-84
2022/05/23 06:48:42;;;;;;;8.20;3.27;;;20.50;31.50;;;;;;5054575;28;20473;-84
2022/05/23 06:51:09;;;;;;;5.47;2.27;;;20.40;31.70;;;;;;5057288;28;20451;-83
2022/05/23 06:53:36;;;;;;;6.63;2.80;;;20.70;31.10;;;;;;5063441;28;20479;-84
2022/05/23 06:56:03;;;;;;;5.17;2.30;;;20.80;29.20;;;;;;5058492;28;20468;-84
2022/05/23 06:58:32;;;;;;;6.10;2.57;;;20.70;27.50;;;;;;5060357;28;20466;-82
2022/05/23 07:00:58;;;;;;;7.37;3.10;;;20.70;27.20;;;;;;5060967;28;20459;-82
2022/05/23 07:03:25;;;;;;;7.27;2.90;;;20.60;27.40;;;;;;5061812;28;20464;-82
2022/05/23 07:14:07;;;;;;;7.50;2.77;;;20.40;28.80;;;;;;5067633;28;20466;-81
2022/05/23 07:16:35;;;;;;;8.83;2.57;;;20.40;29.10;;;;;;5062673;28;20472;-82
2022/05/23 07:19:02;;;;;;;5.33;2.40;;;20.30;29.00;;;;;;5060681;28;20481;-80
2022/05/23 07:21:31;;;;;;;11.67;2.63;;;20.30;29.10;;;;;;5061271;28;20444;-82
2022/05/23 07:23:58;;;;;;;6.23;2.57;;;20.50;28.90;;;;;;5061638;28;20448;-83
2022/05/23 07:26:26;;;;;;;7.90;3.70;;;20.90;27.70;;;;;;5066514;28;20448;-82
2022/05/23 07:28:53;;;;;;;5.70;2.47;;;21.10;27.80;;;;;;5064964;28;20473;-82
2022/05/23 07:31:23;;;;;;;7.60;2.90;;;21.30;26.30;;;;;;5066299;28;20461;-82
2022/05/23 07:33:50;;;;;;;6.70;3.07;;;21.10;26.20;;;;;;5065014;28;20449;-83
2022/05/23 07:36:18;;;;;;;5.40;2.50;;;21.50;26.50;;;;;;5066206;28;20478;-82
2022/05/23 07:38:45;;;;;;;6.60;2.37;;;21.30;26.50;;;;;;5063508;28;20503;-81
2022/05/23 07:41:12;;;;;;;6.27;2.83;;;21.40;28.00;;;;;;5065654;28;20454;-81
2022/05/23 07:43:41;;;;;;;6.73;2.47;;;21.40;26.60;;;;;;5064771;28;20462;-82
2022/05/23 07:46:10;;;;;;;7.80;2.87;;;21.50;26.40;;;;;;5066101;28;20454;-82
2022/05/23 07:48:39;;;;;;;6.10;2.40;;;21.70;26.40;;;;;;5067640;28;20478;-82
2022/05/23 07:51:06;;;;;;;6.07;2.70;;;21.80;26.00;;;;;;5068064;28;20466;-82
2022/05/23 08:01:47;;;;;;;8.50;2.57;;;21.60;25.10;;;;;;5068984;28;20198;-81
2022/05/23 08:04:16;;;;;;;6.10;2.97;;;21.50;26.10;;;;;;5057620;28;20483;-80
2022/05/23 08:06:43;;;;;;;5.40;2.30;;;21.70;26.80;;;;;;5058638;28;20480;-79
2022/05/23 08:09:10;;;;;;;6.10;2.70;;;22.30;25.20;;;;;;5057042;28;20456;-80
2022/05/23 08:11:38;;;;;;;7.20;2.30;;;23.20;24.10;;;;;;5056118;28;20507;-79
2022/05/23 08:14:05;;;;;;;4.60;1.90;;;23.50;21.00;;;;;;5058858;28;21016;-79
2022/05/23 08:16:32;;;;;;;5.70;2.33;;;24.20;19.40;;;;;;5058775;28;20482;-78
2022/05/23 08:19:00;;;;;;;11.10;3.17;;;23.90;18.50;;;;;;5057792;28;20475;-80
2022/05/23 08:21:29;;;;;;;4.70;2.00;;;23.80;18.30;;;;;;5058755;28;20464;-80
2022/05/23 08:23:56;;;;;;;6.90;2.60;;;23.60;19.30;;;;;;5057891;28;20464;-79
2022/05/23 08:26:24;;;;;;;6.33;2.80;;;23.50;20.60;;;;;;5058588;28;20476;-80
2022/05/23 08:28:51;;;;;;;5.90;2.80;;;23.40;21.50;;;;;;5057034;28;20476;-80
2022/05/23 08:31:17;;;;;;;8.37;3.03;;;23.30;20.50;;;;;;5058421;28;20458;-80
2022/05/23 08:33:44;;;;;;;6.90;2.87;;;23.20;19.70;;;;;;5057919;28;20480;-79
2022/05/23 08:36:11;;;;;;;6.17;2.50;;;23.10;20.10;;;;;;5059599;28;20485;-79
2022/05/23 08:38:39;;;;;;;7.63;2.80;;;23.10;20.10;;;;;;5056813;28;20631;-80
2022/05/23 08:41:17;;;;;;;7.47;2.67;;;23.50;18.70;;;;;;5058194;28;20455;-78
2022/05/23 08:43:51;;;;;;;6.80;2.90;;;23.50;17.80;;;;;;5058267;28;20760;-80
2022/05/23 08:46:23;;;;;;;6.73;2.63;;;23.80;18.70;;;;;;5057698;28;20454;-79
2022/05/23 08:48:58;;;;;;;6.73;2.67;;;24.30;18.30;;;;;;5056517;28;20894;-80
2022/05/23 08:51:36;;;;;;;8.87;2.47;;;24.40;15.40;;;;;;5058414;28;20458;-80
2022/05/23 08:54:14;;;;;;;6.40;2.47;;;24.70;15.60;;;;;;5063754;28;21002;-81
2022/05/23 08:56:46;;;;;;;7.55;2.50;;;24.90;14.20;;;;;;5058062;28;20939;-81
2022/05/23 08:59:21;;;;;;;6.83;2.40;;;25.20;14.70;;;;;;5058668;28;20675;-81
2022/05/23 09:01:51;;;;;;;5.30;2.00;;;25.50;13.60;;;;;;5059570;28;20482;-81
2022/05/23 09:04:32;;;;;;;5.60;2.40;;;25.30;15.80;;;;;;5060754;28;20602;-80
2022/05/23 09:07:01;;;;;;;6.87;2.03;;;25.30;14.10;;;;;;5061799;28;20438;-81
2022/05/23 09:09:31;;;;;;;7.27;2.57;;;25.00;13.40;;;;;;5061447;28;20490;-81
2022/05/23 09:12:05;;;;;;;6.90;2.63;;;24.90;14.40;;;;;;5061400;28;20482;-81
2022/05/23 09:14:32;;;;;;;5.60;1.93;;;24.60;15.50;;;;;;5063817;28;20522;-81
2022/05/23 09:16:59;;;;;;;6.73;2.50;;;24.00;15.10;;;;;;5062582;28;20478;-81
2022/05/23 09:19:31;;;;;;;6.03;3.03;;;23.90;16.90;;;;;;5061662;28;20482;-80
2022/05/23 09:22:15;;;;;;;6.60;2.60;;;24.00;16.30;;;;;;5062102;28;20457;-81
2022/05/23 09:24:46;;;;;;;9.37;2.87;;;24.00;17.50;;;;;;5061856;28;20454;-80
2022/05/23 09:27:29;;;;;;;6.13;2.70;;;24.40;18.40;;;;;;5060605;28;20458;-81
2022/05/23 09:29:58;;;;;;;6.77;2.50;;;24.50;18.20;;;;;;5060368;28;20473;-80
2022/05/23 09:32:29;;;;;;;6.20;2.93;;;24.60;17.50;;;;;;5060454;28;20456;-81
2022/05/23 09:34:58;;;;;;;7.17;2.37;;;24.80;17.20;;;;;;5060527;28;20457;-81
2022/05/23 09:37:31;;;;;;;10.47;3.07;;;25.00;16.30;;;;;;5058854;28;20518;-81
2022/05/23 09:40:01;;;;;;;8.17;3.00;;;25.10;15.80;;;;;;5058573;28;20475;-81
2022/05/23 09:48:12;;;;;;;5.20;2.43;;;26.00;14.00;;;;;;5058058;28;20533;-78
2022/05/23 09:50:41;;;;;;;6.03;2.47;;;26.10;12.80;;;;;;5059981;28;20459;-81
2022/05/23 09:53:24;;;;;;;6.13;2.70;;;26.10;13.00;;;;;;5060192;28;20447;-81
2022/05/23 09:55:53;;;;;;;5.20;2.27;;;26.20;13.40;;;;;;5060456;28;20451;-81
2022/05/23 09:58:31;;;;;;;6.07;2.27;;;26.10;13.20;;;;;;5060942;28;20474;-80
2022/05/23 10:01:02;;;;;;;5.07;2.07;;;26.50;13.40;;;;;;5063938;28;20447;-80
2022/05/23 10:03:31;;;;;;;8.03;2.00;;;26.50;12.00;;;;;;5064424;28;20487;-80
2022/05/23 10:06:07;;;;;;;7.17;2.07;;;26.30;11.80;;;;;;5063229;28;20451;-81
2022/05/23 10:08:36;;;;;;;13.70;2.13;;;26.40;11.30;;;;;;5061241;28;20474;-81
2022/05/23 10:11:07;;;;;;;5.07;2.07;;;26.20;12.00;;;;;;5059275;28;20451;-81
2022/05/23 10:13:36;;;;;;;6.57;1.87;;;26.10;11.20;;;;;;5061037;28;20454;-81
2022/05/23 10:16:13;;;;;;;8.23;2.57;;;26.20;12.30;;;;;;5060220;28;20452;-81
2022/05/23 10:18:48;;;;;;;10.57;2.43;;;26.00;12.40;;;;;;5059787;28;20453;-81
2022/05/23 10:21:24;;;;;;;7.33;2.70;;;26.20;12.60;;;;;;5063095;28;20873;-81
2022/05/23 10:24:01;;;;;;;6.40;2.50;;;26.10;11.70;;;;;;5061742;28;20473;-81
2022/05/23 10:26:33;;;;;;;6.20;2.47;;;26.10;12.50;;;;;;5062185;28;20443;-81
2022/05/23 10:29:06;;;;;;;7.53;2.23;;;25.90;11.80;;;;;;5064625;28;20498;-81
2022/05/23 10:31:36;;;;;;;6.27;2.40;;;26.10;11.90;;;;;;5065498;28;20868;-81
2022/05/23 10:34:09;;;;;;;5.50;2.30;;;27.10;9.30;;;;;;5065077;28;20451;-81
2022/05/23 10:36:39;;;;;;;5.80;2.23;;;27.20;9.30;;;;;;5064226;28;20473;-81
2022/05/23 10:42:10;;;;;;;5.77;2.30;;;28.10;9.80;;;;;;5064357;28;20439;-81
2022/05/23 10:44:52;;;;;;;7.40;2.00;;;28.30;7.00;;;;;;5064196;28;20450;-82
2022/05/23 10:47:30;;;;;;;5.47;2.20;;;28.40;7.30;;;;;;5064361;28;20447;-80
2022/05/23 10:50:04;;;;;;;6.23;2.10;;;28.10;6.70;;;;;;5063147;28;20449;-81
2022/05/23 10:52:37;;;;;;;5.80;2.40;;;28.40;7.50;;;;;;5064936;28;20459;-81
2022/05/23 10:55:13;;;;;;;6.00;2.03;;;28.60;5.70;;;;;;5062765;28;20454;-81
2022/05/23 10:57:57;;;;;;;4.60;1.80;;;28.30;5.80;;;;;;5065015;28;20490;-81
2022/05/23 11:00:30;;;;;;;7.27;2.27;;;28.60;4.90;;;;;;5062723;28;20436;-81
2022/05/23 11:03:03;;;;;;;8.73;2.63;;;28.40;6.50;;;;;;5065106;28;20451;-81
2022/05/23 11:05:34;;;;;;;5.37;2.33;;;28.40;6.40;;;;;;5065204;28;20980;-81
2022/05/23 11:08:14;;;;;;;5.03;2.20;;;28.40;6.30;;;;;;5064557;28;20430;-81
2022/05/23 11:10:47;;;;;;;5.43;2.10;;;28.10;6.60;;;;;;5062414;22;20494;-82
2022/05/23 11:13:37;;;;;;;7.07;2.27;;;27.70;9.60;;;;;;5035701;28;20462;-82
2022/05/23 11:16:13;;;;;;;5.73;2.37;;;27.60;9.50;;;;;;5035759;28;20452;-82
2022/05/23 11:18:55;;;;;;;7.90;2.53;;;27.50;9.50;;;;;;5034958;28;20456;-82
2022/05/23 11:21:27;;;;;;;6.13;2.40;;;28.10;7.80;;;;;;5035604;28;20463;-82
2022/05/23 11:23:59;;;;;;;10.87;2.30;;;28.60;6.20;;;;;;5035572;28;20456;-83
2022/05/23 11:26:30;;;;;;;6.90;3.00;;;28.70;5.50;;;;;;5035311;28;20455;-82
2022/05/23 11:34:45;;;;;;;6.47;2.30;;;27.50;7.70;;;;;;4978954;28;20474;-82
2022/05/23 11:39:57;;;;;;;6.50;2.30;;;26.60;11.50;;;;;;5033499;28;20987;-82
2022/05/23 11:42:29;;;;;;;4.80;2.20;;;26.50;13.20;;;;;;5035161;28;20431;-82
2022/05/23 11:48:02;;;;;;;6.03;2.50;;;26.90;12.60;;;;;;5034941;28;20436;-82
2022/05/23 11:50:31;;;;;;;7.40;2.50;;;27.30;11.60;;;;;;5034838;28;20476;-83
2022/05/23 11:53:08;;;;;;;7.50;2.70;;;28.20;8.90;;;;;;5035063;28;20452;-83
2022/05/23 11:56:01;;;;;;;6.27;2.70;;;28.20;9.90;;;;;;5035052;28;20479;-82
2022/05/23 11:58:40;;;;;;;9.50;3.17;;;27.90;9.10;;;;;;5035183;28;21016;-82
2022/05/23 12:01:24;;;;;;;6.30;3.60;;;27.40;11.60;;;;;;5035077;28;20431;-81
2022/05/23 12:04:19;;;;;;;6.80;2.83;;;27.20;11.90;;;;;;5032087;28;20464;-81
2022/05/23 12:06:46;;;;;;;6.27;2.47;;;27.00;11.90;;;;;;5034383;28;20456;-82
2022/05/23 12:09:35;;;;;;;7.00;2.93;;;26.80;12.30;;;;;;5036520;28;20480;-83
2022/05/23 12:12:53;;;;;;;8.63;2.73;;;27.00;14.30;;;;;;5038078;28;20479;-86
2022/05/23 12:15:52;;;;;;;6.93;3.00;;;27.90;12.00;;;;;;5036442;28;20551;-85
2022/05/23 12:18:35;;;;;;;5.60;2.80;;;30.00;6.00;;;;;;5036666;28;20459;-85
2022/05/23 12:21:06;;;;;;;5.50;2.63;;;29.40;6.10;;;;;;5037569;28;20467;-84
2022/05/23 12:23:36;;;;;;;6.63;2.40;;;28.80;7.90;;;;;;5038277;28;20460;-82
2022/05/23 12:26:20;;;;;;;7.23;3.17;;;29.30;7.60;;;;;;5035719;28;20471;-81
2022/05/23 12:28:49;;;;;;;6.40;2.70;;;28.80;8.70;;;;;;5034630;28;20452;-84
2022/05/23 12:31:18;;;;;;;8.20;2.80;;;28.10;9.80;;;;;;5035186;28;20483;-83
2022/05/23 12:34:05;;;;;;;5.77;3.07;;;27.60;11.50;;;;;;5031180;28;20484;-82
2022/05/23 12:36:34;;;;;;;5.77;2.50;;;27.00;14.00;;;;;;5034071;28;20483;-83
2022/05/23 12:39:30;;;;;;;5.40;2.70;;;26.50;15.60;;;;;;5027697;28;20773;-82
2022/05/23 12:42:14;;;;;;;7.83;3.03;;;26.20;17.60;;;;;;5035490;28;20444;-82
2022/05/23 12:45:04;;;;;;;8.40;3.13;;;26.20;17.80;;;;;;5034723;28;20510;-83
2022/05/23 12:48:00;;;;;;;8.20;3.33;;;26.10;17.70;;;;;;5035037;28;20444;-84
2022/05/23 12:50:43;;;;;;;6.70;2.43;;;25.90;19.50;;;;;;5032812;28;20463;-82
2022/05/23 12:53:34;;;;;;;7.77;2.93;;;25.90;20.80;;;;;;5035994;28;20458;-82
2022/05/23 12:56:26;;;;;;;7.60;3.17;;;25.30;21.20;;;;;;5036552;28;21061;-83
2022/05/23 12:59:26;;;;;;;12.53;3.50;;;24.80;20.50;;;;;;5034195;28;20484;-83
2022/05/23 13:01:59;;;;;;;10.30;4.27;;;24.40;22.90;;;;;;5033790;28;20462;-80
2022/05/23 13:04:34;;;;;;;8.13;3.17;;;23.90;23.90;;;;;;5035741;28;20883;-80
2022/05/23 13:07:07;;;;;;;7.43;2.63;;;23.80;24.40;;;;;;5033846;28;20875;-81
2022/05/23 13:09:39;;;;;;;11.20;3.13;;;23.60;25.70;;;;;;5032549;28;20487;-80
2022/05/23 13:12:10;;;;;;;8.40;2.57;;;23.30;26.30;;;;;;5034160;28;20461;-80
2022/05/23 13:14:49;;;;;;;6.50;2.60;;;23.10;28.10;;;;;;5032565;28;20455;-81
2022/05/23 13:17:34;;;;;;;9.43;3.03;;;22.90;29.10;;;;;;5034238;28;20481;-81
2022/05/23 13:22:46;;;;;;;10.23;5.07;;;22.40;37.60;;;;;;5034711;28;20441;-80
2022/05/23 13:25:14;;;;;;;15.73;4.00;;;22.10;42.30;;;;;;5034700;28;20457;-79
2022/05/23 13:27:46;;;;;;;6.37;3.13;;;21.80;47.30;;;;;;5034659;28;20549;-82
2022/05/23 13:30:30;;;;;;;9.87;4.10;;;21.50;54.20;;;;;;5034167;28;20472;-80
2022/05/23 13:33:08;;;;;;;9.20;4.40;;;21.10;61.40;;;;;;5035144;28;20460;-80
2022/05/23 13:35:36;;;;;;;11.00;4.37;;;20.80;68.70;;;;;;5035395;28;20491;-81
2022/05/23 13:38:23;;;;;;;8.90;5.03;;;20.50;74.30;;;;;;5035081;28;20912;-80
2022/05/23 13:40:53;;;;;;;8.83;5.60;;;20.20;78.40;;;;;;5034640;28;20468;-80
2022/05/23 13:43:23;;;;;;;15.17;13.67;;;20.10;86.20;;;;;;5034114;28;21035;-80
2022/05/23 13:46:03;;;;;;;16.47;15.07;;;20.00;94.60;;;;;;5033256;28;20448;-81
2022/05/23 13:48:37;;;;;;;26.20;24.47;;;20.00;97.50;;;;;;5032118;28;20465;-80
2022/05/23 13:51:07;;;;;;;75.07;71.47;;;19.80;99.90;;;;;;5032479;28;20464;-80
2022/05/23 13:53:39;;;;;;;293.93;283.70;;;19.70;99.90;;;;;;5032319;28;20466;-80
2022/05/23 13:56:06;;;;;;;447.60;429.73;;;19.80;99.90;;;;;;5032597;28;20550;-80
2022/05/23 13:58:39;;;;;;;467.03;447.97;;;20.10;99.90;;;;;;5031408;28;20859;-80
2022/05/23 14:01:08;;;;;;;393.97;379.00;;;20.20;99.90;;;;;;5032392;28;20988;-80
2022/05/23 14:03:39;;;;;;;423.97;407.87;;;20.60;99.90;;;;;;5032502;28;20458;-81
2022/05/23 14:06:08;;;;;;;447.83;432.10;;;20.90;99.90;;;;;;5030997;28;20453;-80
2022/05/23 14:08:41;;;;;;;402.63;389.33;;;21.30;99.90;;;;;;5031231;28;20452;-81
2022/05/23 14:11:18;;;;;;;265.33;256.60;;;21.70;99.90;;;;;;5033729;28;20820;-82
2022/05/23 14:13:46;;;;;;;104.50;100.53;;;22.00;99.90;;;;;;5033779;28;20448;-82
2022/05/23 14:16:16;;;;;;;267.50;258.93;;;21.90;99.90;;;;;;5031779;28;20933;-82
2022/05/23 14:18:43;;;;;;;49.30;46.77;;;22.10;99.90;;;;;;5032254;28;20503;-80
2022/05/23 14:21:32;;;;;;;139.40;134.07;;;22.10;99.30;;;;;;5033771;28;20467;-81
2022/05/23 14:24:00;;;;;;;183.17;176.30;;;22.70;99.60;;;;;;5034402;28;20463;-81
2022/05/23 14:26:28;;;;;;;8.97;6.23;;;24.30;97.60;;;;;;5034121;28;20547;-81
2022/05/23 14:28:56;;;;;;;7.40;5.23;;;25.50;71.50;;;;;;5033962;28;20450;-81